createdAt,value
2023-01-12T00:00:39.124Z,96.27
2023-01-12T00:01:39.056Z,96.58
2023-01-12T00:02:39.092Z,96.69
2023-01-12T00:03:39.040Z,96.31
2023-01-12T00:04:39.081Z,96.21
2023-01-12T00:05:39.004Z,96.01
2023-01-12T00:06:38.991Z,95.18
2023-01-12T00:07:38.975Z,95.28
2023-01-12T00:08:38.966Z,95.07
2023-01-12T00:09:38.956Z,94.87
2023-01-12T00:10:38.942Z,94.87
2023-01-12T00:11:38.922Z,94.49
2023-01-12T00:12:38.914Z,95.01
2023-01-12T00:13:38.925Z,94.56
2023-01-12T00:14:38.892Z,94.24
2023-01-12T00:15:38.876Z,94.45
2023-01-12T00:16:38.934Z,95.01
2023-01-12T00:17:38.845Z,95.18
2023-01-12T00:18:38.831Z,94.70
2023-01-12T00:19:38.994Z,94.66
2023-01-12T00:20:38.809Z,95.39
2023-01-12T00:21:38.789Z,95.39
2023-01-12T00:22:38.788Z,95.18
2023-01-12T00:23:38.768Z,95.18
2023-01-12T00:24:38.751Z,95.01
2023-01-12T00:25:38.739Z,94.56
2023-01-12T00:26:38.726Z,94.70
2023-01-12T00:27:38.708Z,94.49
2023-01-12T00:28:38.703Z,94.49
2023-01-12T00:29:38.708Z,94.70
2023-01-12T00:30:38.676Z,94.49
2023-01-12T00:31:38.667Z,94.29
2023-01-12T00:32:38.646Z,94.29
2023-01-12T00:33:38.640Z,93.77
2023-01-12T00:34:38.649Z,93.87
2023-01-12T00:35:38.608Z,93.04
2023-01-12T00:36:38.611Z,93.29
2023-01-12T00:37:38.582Z,92.74
2023-01-12T00:38:38.593Z,92.94
2023-01-12T00:39:40.771Z,92.84
2023-01-12T00:40:38.552Z,92.68
2023-01-12T00:41:38.532Z,93.04
2023-01-12T00:42:38.519Z,93.04
2023-01-12T00:43:38.501Z,93.25
2023-01-12T00:44:38.492Z,92.84
2023-01-12T00:45:38.587Z,93.00
2023-01-12T00:46:38.465Z,92.90
2023-01-12T00:47:38.442Z,92.90
2023-01-12T00:48:38.432Z,93.00
2023-01-12T00:49:38.417Z,93.31
2023-01-12T00:50:38.450Z,93.41
2023-01-12T00:51:38.387Z,94.14
2023-01-12T00:52:38.435Z,93.73
2023-01-12T00:53:38.378Z,94.20
2023-01-12T00:54:38.351Z,96.06
2023-01-12T00:55:38.348Z,97.20
2023-01-12T00:56:38.341Z,99.27
2023-01-12T00:57:38.351Z,98.13
2023-01-12T00:58:38.302Z,97.26
2023-01-12T00:59:38.289Z,97.16
2023-01-12T01:00:38.280Z,97.16
2023-01-12T01:01:38.462Z,97.36
2023-01-12T01:02:38.312Z,97.78
2023-01-12T01:03:38.238Z,98.50
2023-01-12T01:04:38.226Z,97.67
2023-01-12T01:05:38.209Z,99.85
2023-01-12T01:06:38.197Z,99.33
2023-01-12T01:07:38.185Z,98.56
2023-01-12T01:08:38.168Z,98.66
2023-01-12T01:09:38.159Z,99.18
2023-01-12T01:10:38.158Z,98.97
2023-01-12T01:11:38.134Z,99.49
2023-01-12T01:12:38.128Z,99.29
2023-01-12T01:13:38.109Z,99.49
2023-01-12T01:14:38.093Z,99.99
2023-01-12T01:15:38.183Z,99.99
2023-01-12T01:16:38.080Z,99.99
2023-01-12T01:17:38.072Z,99.99
2023-01-12T01:18:38.042Z,99.99
2023-01-12T01:19:38.022Z,99.99
2023-01-12T01:20:38.015Z,99.99
2023-01-12T01:21:38.001Z,99.99
2023-01-12T01:22:37.998Z,99.99
2023-01-12T01:23:37.994Z,99.65
2023-01-12T01:24:37.964Z,99.99
2023-01-12T01:25:37.945Z,99.99
2023-01-12T01:26:37.940Z,99.99
2023-01-12T01:27:37.924Z,99.99
2023-01-12T01:28:37.910Z,99.99
2023-01-12T01:29:37.895Z,99.99
2023-01-12T01:30:37.883Z,99.99
2023-01-12T01:31:37.876Z,99.99
2023-01-12T01:32:37.861Z,99.99
2023-01-12T01:33:37.872Z,99.99
2023-01-12T01:34:37.826Z,99.99
2023-01-12T01:35:37.814Z,99.99
2023-01-12T01:36:37.820Z,99.99
2023-01-12T01:37:37.803Z,99.99
2023-01-12T01:38:37.765Z,99.99
2023-01-12T01:39:37.766Z,99.99
2023-01-12T01:40:37.744Z,99.99
2023-01-12T01:41:37.728Z,99.99
2023-01-12T01:42:37.727Z,99.99
2023-01-12T01:43:37.709Z,99.99
2023-01-12T01:44:37.697Z,99.99
2023-01-12T01:45:37.676Z,99.99
2023-01-12T01:46:37.729Z,99.99
2023-01-12T01:47:37.673Z,99.99
2023-01-12T01:48:37.634Z,99.99
2023-01-12T01:49:37.639Z,99.99
2023-01-12T01:50:37.618Z,99.99
2023-01-12T01:51:37.598Z,99.99
2023-01-12T01:52:37.614Z,99.99
2023-01-12T01:53:37.569Z,99.99
2023-01-12T01:54:37.570Z,99.99
2023-01-12T01:55:37.554Z,99.99
2023-01-12T01:56:37.541Z,99.99
2023-01-12T01:57:37.617Z,99.99
2023-01-12T01:58:37.505Z,99.99
2023-01-12T01:59:37.493Z,99.99
2023-01-12T02:00:37.475Z,99.99
2023-01-12T02:01:37.593Z,99.99
2023-01-12T02:02:37.453Z,99.99
2023-01-12T02:03:37.441Z,99.99
2023-01-12T02:04:37.427Z,99.99
2023-01-12T02:05:37.467Z,99.99
2023-01-12T02:06:37.408Z,99.99
2023-01-12T02:07:37.375Z,99.99
2023-01-12T02:08:37.361Z,99.99
2023-01-12T02:09:37.349Z,99.99
2023-01-12T02:10:37.334Z,99.99
2023-01-12T02:11:37.348Z,99.99
2023-01-12T02:12:37.326Z,99.99
2023-01-12T02:13:37.297Z,99.99
2023-01-12T02:14:37.284Z,99.99
2023-01-12T02:15:37.267Z,99.99
2023-01-12T02:16:37.261Z,99.99
2023-01-12T02:17:37.241Z,99.99
2023-01-12T02:18:37.228Z,99.99
2023-01-12T02:19:37.211Z,99.99
2023-01-12T02:20:37.212Z,99.99
2023-01-12T02:21:37.217Z,99.99
2023-01-12T02:22:37.169Z,99.99
2023-01-12T02:23:37.161Z,99.99
2023-01-12T02:24:37.145Z,99.99
2023-01-12T02:25:37.144Z,99.99
2023-01-12T02:26:37.130Z,99.99
2023-01-12T02:27:37.128Z,99.99
2023-01-12T02:28:37.097Z,99.79
2023-01-12T02:29:37.080Z,99.99
2023-01-12T02:30:37.067Z,99.99
2023-01-12T02:31:37.136Z,99.99
2023-01-12T02:32:37.036Z,99.99
2023-01-12T02:33:37.020Z,99.99
2023-01-12T02:34:37.018Z,99.99
2023-01-12T02:35:36.999Z,99.99
2023-01-12T02:36:36.986Z,99.99
2023-01-12T02:37:36.985Z,99.79
2023-01-12T02:38:36.961Z,99.90
2023-01-12T02:39:39.001Z,99.99
2023-01-12T02:40:36.934Z,99.38
2023-01-12T02:41:36.914Z,99.99
2023-01-12T02:42:36.909Z,99.90
2023-01-12T02:43:36.904Z,98.66
2023-01-12T02:44:36.876Z,98.30
2023-01-12T02:45:36.856Z,98.61
2023-01-12T02:46:36.893Z,99.99
2023-01-12T02:47:36.830Z,98.76
2023-01-12T02:48:36.831Z,99.27
2023-01-12T02:49:36.805Z,99.52
2023-01-12T02:50:36.795Z,98.35
2023-01-12T02:51:36.780Z,99.58
2023-01-12T02:52:36.771Z,99.07
2023-01-12T02:53:36.771Z,99.99
2023-01-12T02:54:36.754Z,99.94
2023-01-12T02:55:36.724Z,99.99
2023-01-12T02:56:36.712Z,99.63
2023-01-12T02:57:36.699Z,99.99
2023-01-12T02:58:36.709Z,99.99
2023-01-12T02:59:36.672Z,99.73
2023-01-12T03:00:36.672Z,99.99
2023-01-12T03:01:36.743Z,99.99
2023-01-12T03:02:36.632Z,99.99
2023-01-12T03:03:36.620Z,99.99
2023-01-12T03:04:36.606Z,99.99
2023-01-12T03:05:36.594Z,99.99
2023-01-12T03:06:36.581Z,99.99
2023-01-12T03:07:36.557Z,99.99
2023-01-12T03:08:36.547Z,99.99
2023-01-12T03:09:36.572Z,99.99
2023-01-12T03:10:36.518Z,99.99
2023-01-12T03:11:36.513Z,99.99
2023-01-12T03:12:36.489Z,99.99
2023-01-12T03:13:36.483Z,99.99
2023-01-12T03:14:36.482Z,99.99
2023-01-12T03:15:36.454Z,99.99
2023-01-12T03:16:36.448Z,99.99
2023-01-12T03:17:36.422Z,99.99
2023-01-12T03:18:36.413Z,99.99
2023-01-12T03:19:36.410Z,99.99
2023-01-12T03:20:36.386Z,99.99
2023-01-12T03:21:36.370Z,99.99
2023-01-12T03:22:36.623Z,99.99
2023-01-12T03:23:36.344Z,99.99
2023-01-12T03:24:36.350Z,99.99
2023-01-12T03:25:36.360Z,99.99
2023-01-12T03:26:36.328Z,99.99
2023-01-12T03:27:36.292Z,99.99
2023-01-12T03:28:36.307Z,99.99
2023-01-12T03:29:36.266Z,99.99
2023-01-12T03:30:36.246Z,99.99
2023-01-12T03:31:36.262Z,99.99
2023-01-12T03:32:36.222Z,99.99
2023-01-12T03:33:36.203Z,99.99
2023-01-12T03:34:36.196Z,99.99
2023-01-12T03:35:36.180Z,99.99
2023-01-12T03:36:36.167Z,99.99
2023-01-12T03:37:36.152Z,99.99
2023-01-12T03:38:36.131Z,99.99
2023-01-12T03:39:36.126Z,99.99
2023-01-12T03:40:36.113Z,99.99
2023-01-12T03:41:36.125Z,99.99
2023-01-12T03:42:36.082Z,99.99
2023-01-12T03:43:36.086Z,99.99
2023-01-12T03:44:36.058Z,99.99
2023-01-12T03:45:36.078Z,99.99
2023-01-12T03:46:36.083Z,99.99
2023-01-12T03:47:36.015Z,99.99
2023-01-12T03:48:36.003Z,99.99
2023-01-12T03:49:35.988Z,99.99
2023-01-12T03:50:35.977Z,99.99
2023-01-12T03:51:35.961Z,99.99
2023-01-12T03:52:35.955Z,99.99
2023-01-12T03:53:35.933Z,99.99
2023-01-12T03:54:35.922Z,99.99
2023-01-12T03:55:35.907Z,99.99
2023-01-12T03:56:35.885Z,99.99
2023-01-12T03:57:35.978Z,99.99
2023-01-12T03:58:35.880Z,99.99
2023-01-12T03:59:35.855Z,99.99
2023-01-12T04:00:36.007Z,99.99
2023-01-12T04:01:35.937Z,99.99
2023-01-12T04:02:35.818Z,99.99
2023-01-12T04:03:35.816Z,99.99
2023-01-12T04:04:35.789Z,99.99
2023-01-12T04:05:35.775Z,99.99
2023-01-12T04:06:35.764Z,99.99
2023-01-12T04:07:35.739Z,99.99
2023-01-12T04:08:35.728Z,99.99
2023-01-12T04:09:35.727Z,99.99
2023-01-12T04:10:35.696Z,99.99
2023-01-12T04:11:35.701Z,99.99
2023-01-12T04:12:35.668Z,99.99
2023-01-12T04:13:35.687Z,99.99
2023-01-12T04:14:35.646Z,99.99
2023-01-12T04:15:35.651Z,99.99
2023-01-12T04:16:35.687Z,99.99
2023-01-12T04:17:35.628Z,99.99
2023-01-12T04:18:35.599Z,99.99
2023-01-12T04:19:35.591Z,99.99
2023-01-12T04:20:35.572Z,99.99
2023-01-12T04:21:35.548Z,99.99
2023-01-12T04:22:35.540Z,99.99
2023-01-12T04:23:35.535Z,99.99
2023-01-12T04:24:35.514Z,99.99
2023-01-12T04:25:35.505Z,99.99
2023-01-12T04:26:35.477Z,99.99
2023-01-12T04:27:35.476Z,99.99
2023-01-12T04:28:35.451Z,99.99
2023-01-12T04:29:35.469Z,99.99
2023-01-12T04:30:35.434Z,99.99
2023-01-12T04:31:35.460Z,99.99
2023-01-12T04:32:35.400Z,99.99
2023-01-12T04:33:35.391Z,99.99
2023-01-12T04:34:35.373Z,99.99
2023-01-12T04:35:35.372Z,99.99
2023-01-12T04:36:35.352Z,99.99
2023-01-12T04:37:35.338Z,99.99
2023-01-12T04:38:35.319Z,99.99
2023-01-12T04:39:35.305Z,99.99
2023-01-12T04:40:35.301Z,99.99
2023-01-12T04:41:35.274Z,99.99
2023-01-12T04:42:35.271Z,99.99
2023-01-12T04:43:35.255Z,99.99
2023-01-12T04:44:35.246Z,99.99
2023-01-12T04:45:35.326Z,99.99
2023-01-12T04:46:35.212Z,99.99
2023-01-12T04:47:35.196Z,99.99
2023-01-12T04:48:35.197Z,99.99
2023-01-12T04:49:35.164Z,99.99
2023-01-12T04:50:35.157Z,99.99
2023-01-12T04:51:35.144Z,99.99
2023-01-12T04:52:35.130Z,99.99
2023-01-12T04:53:35.172Z,99.99
2023-01-12T04:54:35.099Z,99.99
2023-01-12T04:55:35.086Z,99.99
2023-01-12T04:56:35.078Z,99.99
2023-01-12T04:57:35.079Z,99.99
2023-01-12T04:58:35.063Z,99.99
2023-01-12T04:59:35.034Z,99.99
2023-01-12T05:00:35.044Z,99.99
2023-01-12T05:01:35.119Z,99.99
2023-01-12T05:02:34.993Z,99.99
2023-01-12T05:03:34.997Z,99.99
2023-01-12T05:04:34.978Z,99.99
2023-01-12T05:05:34.952Z,99.99
2023-01-12T05:06:34.944Z,99.99
2023-01-12T05:07:34.933Z,99.99
2023-01-12T05:08:34.913Z,99.99
2023-01-12T05:09:34.951Z,99.99
2023-01-12T05:10:34.889Z,99.99
2023-01-12T05:11:34.876Z,99.99
2023-01-12T05:12:34.862Z,99.99
2023-01-12T05:13:34.851Z,99.99
2023-01-12T05:14:34.838Z,99.99
2023-01-12T05:15:34.826Z,99.95
2023-01-12T05:16:34.836Z,99.99
2023-01-12T05:17:34.820Z,99.95
2023-01-12T05:18:34.779Z,99.74
2023-01-12T05:19:34.771Z,99.90
2023-01-12T05:20:34.751Z,99.99
2023-01-12T05:21:34.738Z,99.99
2023-01-12T05:22:34.720Z,99.99
2023-01-12T05:23:34.720Z,99.39
2023-01-12T05:24:34.699Z,99.99
2023-01-12T05:25:34.685Z,99.99
2023-01-12T05:26:34.674Z,99.13
2023-01-12T05:27:34.659Z,99.99
2023-01-12T05:28:34.647Z,99.74
2023-01-12T05:29:34.632Z,98.97
2023-01-12T05:30:34.670Z,99.13
2023-01-12T05:31:34.612Z,99.99
2023-01-12T05:32:34.591Z,99.99
2023-01-12T05:33:34.597Z,99.99
2023-01-12T05:34:34.567Z,99.99
2023-01-12T05:35:34.551Z,99.99
2023-01-12T05:36:34.531Z,99.64
2023-01-12T05:37:34.525Z,99.99
2023-01-12T05:38:34.506Z,99.23
2023-01-12T05:39:34.498Z,99.95
2023-01-12T05:40:34.477Z,98.61
2023-01-12T05:41:34.477Z,99.43
2023-01-12T05:42:34.454Z,99.02
2023-01-12T05:43:34.448Z,99.60
2023-01-12T05:44:34.430Z,99.95
2023-01-12T05:45:34.421Z,99.54
2023-01-12T05:46:34.402Z,99.18
2023-01-12T05:47:34.388Z,99.64
2023-01-12T05:48:34.381Z,99.99
2023-01-12T05:49:34.389Z,99.99
2023-01-12T05:50:34.350Z,99.90
2023-01-12T05:51:34.337Z,99.85
2023-01-12T05:52:34.320Z,99.64
2023-01-12T05:53:34.310Z,99.54
2023-01-12T05:54:34.314Z,99.99
2023-01-12T05:55:34.293Z,99.23
2023-01-12T05:56:34.271Z,99.99
2023-01-12T05:57:34.262Z,99.95
2023-01-12T05:58:34.242Z,99.95
2023-01-12T05:59:34.235Z,99.85
2023-01-12T06:00:34.207Z,98.71
2023-01-12T06:01:34.205Z,98.15
2023-01-12T06:02:34.369Z,98.92
2023-01-12T06:03:34.182Z,98.46
2023-01-12T06:04:34.214Z,98.20
2023-01-12T06:05:34.169Z,98.10
2023-01-12T06:06:34.135Z,98.92
2023-01-12T06:07:34.132Z,97.58
2023-01-12T06:08:34.112Z,98.88
2023-01-12T06:09:34.094Z,98.67
2023-01-12T06:10:34.085Z,98.10
2023-01-12T06:11:34.069Z,97.33
2023-01-12T06:12:34.054Z,97.23
2023-01-12T06:13:34.046Z,96.71
2023-01-12T06:14:34.028Z,97.02
2023-01-12T06:15:34.096Z,96.50
2023-01-12T06:16:33.999Z,96.81
2023-01-12T06:17:33.986Z,96.81
2023-01-12T06:18:33.973Z,96.09
2023-01-12T06:19:33.965Z,95.78
2023-01-12T06:20:33.955Z,97.06
2023-01-12T06:21:34.005Z,97.13
2023-01-12T06:22:33.920Z,97.53
2023-01-12T06:23:35.134Z,98.71
2023-01-12T06:24:33.894Z,98.82
2023-01-12T06:25:33.885Z,97.99
2023-01-12T06:26:33.873Z,98.71
2023-01-12T06:27:33.853Z,98.30
2023-01-12T06:28:33.834Z,99.17
2023-01-12T06:29:33.827Z,99.27
2023-01-12T06:30:33.808Z,98.97
2023-01-12T06:31:33.909Z,99.07
2023-01-12T06:32:33.806Z,99.69
2023-01-12T06:33:33.779Z,99.27
2023-01-12T06:34:33.762Z,98.97
2023-01-12T06:35:33.765Z,99.79
2023-01-12T06:36:33.739Z,99.99
2023-01-12T06:37:33.896Z,99.69
2023-01-12T06:38:33.710Z,99.99
2023-01-12T06:39:33.693Z,99.99
2023-01-12T06:40:33.677Z,99.94
2023-01-12T06:41:33.666Z,99.38
2023-01-12T06:42:33.653Z,99.99
2023-01-12T06:43:33.648Z,99.99
2023-01-12T06:44:33.627Z,99.32
2023-01-12T06:45:33.624Z,99.27
2023-01-12T06:46:33.679Z,99.17
2023-01-12T06:47:33.586Z,99.69
2023-01-12T06:48:38.986Z,99.17
2023-01-12T06:49:33.570Z,99.79
2023-01-12T06:50:33.550Z,98.35
2023-01-12T06:51:33.560Z,99.48
2023-01-12T06:52:33.531Z,99.79
2023-01-12T06:53:33.539Z,99.17
2023-01-12T06:54:33.493Z,99.07
2023-01-12T06:55:33.497Z,98.66
2023-01-12T06:56:33.462Z,99.07
2023-01-12T06:57:33.450Z,99.69
2023-01-12T06:58:33.434Z,99.43
2023-01-12T06:59:33.426Z,99.58
2023-01-12T07:00:33.416Z,99.17
2023-01-12T07:01:33.511Z,98.97
2023-01-12T07:02:33.401Z,99.79
2023-01-12T07:03:33.363Z,99.99
2023-01-12T07:04:33.433Z,99.99
2023-01-12T07:05:33.341Z,99.99
2023-01-12T07:06:33.328Z,99.99
2023-01-12T07:07:33.313Z,99.99
2023-01-12T07:08:33.326Z,98.66
2023-01-12T07:09:33.310Z,98.14
2023-01-12T07:10:33.273Z,98.71
2023-01-12T07:11:33.265Z,99.43
2023-01-12T07:12:33.298Z,99.99
2023-01-12T07:13:33.236Z,98.82
2023-01-12T07:14:33.226Z,98.20
2023-01-12T07:15:33.213Z,99.23
2023-01-12T07:16:33.195Z,99.13
2023-01-12T07:17:33.184Z,98.92
2023-01-12T07:18:33.172Z,98.61
2023-01-12T07:19:33.157Z,98.82
2023-01-12T07:20:33.135Z,98.92
2023-01-12T07:21:33.125Z,98.30
2023-01-12T07:22:33.111Z,96.96
2023-01-12T07:23:33.110Z,97.02
2023-01-12T07:24:33.086Z,97.02
2023-01-12T07:25:33.102Z,97.85
2023-01-12T07:26:33.062Z,98.10
2023-01-12T07:27:33.051Z,98.50
2023-01-12T07:28:33.034Z,99.74
2023-01-12T07:29:33.031Z,98.61
2023-01-12T07:30:33.011Z,98.10
2023-01-12T07:31:33.001Z,97.68
2023-01-12T07:32:32.984Z,98.41
2023-01-12T07:33:32.961Z,98.71
2023-01-12T07:34:32.959Z,99.74
2023-01-12T07:35:32.944Z,97.06
2023-01-12T07:36:32.925Z,97.74
2023-01-12T07:37:32.922Z,98.67
2023-01-12T07:38:32.901Z,98.36
2023-01-12T07:39:32.887Z,98.15
2023-01-12T07:40:32.885Z,97.85
2023-01-12T07:41:32.885Z,98.25
2023-01-12T07:42:32.845Z,97.74
2023-01-12T07:43:32.833Z,98.57
2023-01-12T07:44:32.821Z,97.85
2023-01-12T07:45:32.813Z,98.67
2023-01-12T07:46:32.884Z,96.41
2023-01-12T07:47:32.795Z,95.33
2023-01-12T07:48:32.770Z,94.77
2023-01-12T07:49:32.762Z,96.15
2023-01-12T07:50:32.738Z,94.51
2023-01-12T07:51:32.728Z,93.84
2023-01-12T07:52:32.724Z,93.84
2023-01-12T07:53:32.702Z,95.39
2023-01-12T07:54:32.692Z,93.12
2023-01-12T07:55:32.691Z,93.02
2023-01-12T07:56:32.666Z,92.61
2023-01-12T07:57:32.669Z,95.08
2023-01-12T07:58:32.640Z,94.36
2023-01-12T07:59:32.622Z,94.46
2023-01-12T08:00:32.613Z,93.95
2023-01-12T08:01:32.775Z,92.10
2023-01-12T08:02:32.583Z,92.71
2023-01-12T08:03:32.569Z,91.27
2023-01-12T08:04:32.552Z,93.84
2023-01-12T08:05:32.633Z,90.81
2023-01-12T08:06:32.521Z,94.36
2023-01-12T08:07:32.517Z,92.10
2023-01-12T08:08:32.503Z,92.92
2023-01-12T08:09:32.488Z,92.61
2023-01-12T08:10:32.477Z,92.05
2023-01-12T08:11:32.455Z,94.52
2023-01-12T08:12:32.467Z,95.18
2023-01-12T08:13:32.460Z,93.84
2023-01-12T08:14:32.423Z,94.36
2023-01-12T08:15:32.401Z,92.50
2023-01-12T08:16:32.419Z,93.70
2023-01-12T08:17:32.375Z,94.05
2023-01-12T08:18:32.365Z,93.43
2023-01-12T08:19:32.352Z,91.95
2023-01-12T08:20:32.345Z,92.77
2023-01-12T08:21:32.334Z,94.42
2023-01-12T08:22:32.318Z,95.70
2023-01-12T08:23:32.322Z,94.26
2023-01-12T08:24:32.286Z,93.02
2023-01-12T08:25:32.268Z,94.56
2023-01-12T08:26:32.264Z,95.39
2023-01-12T08:27:32.247Z,92.40
2023-01-12T08:28:32.243Z,91.74
2023-01-12T08:29:32.240Z,94.01
2023-01-12T08:30:32.210Z,94.77
2023-01-12T08:31:32.186Z,95.96
2023-01-12T08:32:32.180Z,93.54
2023-01-12T08:33:32.159Z,94.56
2023-01-12T08:34:32.210Z,91.64
2023-01-12T08:35:32.139Z,92.46
2023-01-12T08:36:32.130Z,89.85
2023-01-12T08:37:32.116Z,89.13
2023-01-12T08:38:32.099Z,90.98
2023-01-12T08:39:32.080Z,92.93
2023-01-12T08:40:32.073Z,92.73
2023-01-12T08:41:32.056Z,91.80
2023-01-12T08:42:32.130Z,93.55
2023-01-12T08:43:32.037Z,93.44
2023-01-12T08:44:32.023Z,92.67
2023-01-12T08:45:32.033Z,90.30
2023-01-12T08:46:32.016Z,92.57
2023-01-12T08:47:31.979Z,93.86
2023-01-12T08:48:31.973Z,93.55
2023-01-12T08:49:31.949Z,93.90
2023-01-12T08:50:31.941Z,92.73
2023-01-12T08:51:31.937Z,90.88
2023-01-12T08:52:31.911Z,90.88
2023-01-12T08:53:31.909Z,93.14
2023-01-12T08:54:31.893Z,93.18
2023-01-12T08:55:31.875Z,92.52
2023-01-12T08:56:31.865Z,90.88
2023-01-12T08:57:31.851Z,90.36
2023-01-12T08:58:31.837Z,90.67
2023-01-12T08:59:31.826Z,89.23
2023-01-12T09:00:31.883Z,88.17
2023-01-12T09:01:31.975Z,90.16
2023-01-12T09:02:31.778Z,87.34
2023-01-12T09:03:31.758Z,88.17
2023-01-12T09:04:31.756Z,88.92
2023-01-12T09:05:31.741Z,90.32
2023-01-12T09:06:31.736Z,91.25
2023-01-12T09:07:31.710Z,89.54
2023-01-12T09:08:31.703Z,89.19
2023-01-12T09:09:31.680Z,90.47
2023-01-12T09:10:31.679Z,92.17
2023-01-12T09:11:31.660Z,94.12
2023-01-12T09:12:31.655Z,94.68
2023-01-12T09:13:31.667Z,94.78
2023-01-12T09:14:31.616Z,94.37
2023-01-12T09:15:31.610Z,94.07
2023-01-12T09:16:31.627Z,94.99
2023-01-12T09:17:31.604Z,93.55
2023-01-12T09:18:31.592Z,92.01
2023-01-12T09:19:31.549Z,89.85
2023-01-12T09:20:31.537Z,90.06
2023-01-12T09:21:31.531Z,90.01
2023-01-12T09:22:31.513Z,91.86
2023-01-12T09:23:31.495Z,92.48
2023-01-12T09:24:31.489Z,89.03
2023-01-12T09:25:31.473Z,89.40
2023-01-12T09:26:31.478Z,89.19
2023-01-12T09:27:31.453Z,89.60
2023-01-12T09:28:31.438Z,89.81
2023-01-12T09:29:31.416Z,90.22
2023-01-12T09:30:31.410Z,90.01
2023-01-12T09:31:31.473Z,88.68
2023-01-12T09:32:36.761Z,91.55
2023-01-12T09:33:31.390Z,89.91
2023-01-12T09:34:31.439Z,89.09
2023-01-12T09:35:31.335Z,91.86
2023-01-12T09:36:31.324Z,90.32
2023-01-12T09:37:31.312Z,93.96
2023-01-12T09:38:31.301Z,93.04
2023-01-12T09:39:31.286Z,95.15
2023-01-12T09:40:31.276Z,90.98
2023-01-12T09:41:31.255Z,91.04
2023-01-12T09:42:31.248Z,93.40
2023-01-12T09:43:31.229Z,93.04
2023-01-12T09:44:31.213Z,90.12
2023-01-12T09:45:31.254Z,91.49
2023-01-12T09:46:31.190Z,88.92
2023-01-12T09:47:31.174Z,89.81
2023-01-12T09:48:31.162Z,90.63
2023-01-12T09:49:31.167Z,89.23
2023-01-12T09:50:31.134Z,90.83
2023-01-12T09:51:31.137Z,90.94
2023-01-12T09:52:31.114Z,89.29
2023-01-12T09:53:31.185Z,90.01
2023-01-12T09:54:31.084Z,91.45
2023-01-12T09:55:31.067Z,92.79
2023-01-12T09:56:31.056Z,90.22
2023-01-12T09:57:31.044Z,89.54
2023-01-12T09:58:31.031Z,88.57
2023-01-12T09:59:31.015Z,89.09
2023-01-12T10:00:32.556Z,88.27
2023-01-12T10:01:31.036Z,88.47
2023-01-12T10:02:33.173Z,89.19
2023-01-12T10:03:31.019Z,88.53
2023-01-12T10:04:30.947Z,90.73
2023-01-12T10:05:38.985Z,89.60
2023-01-12T10:06:31.948Z,91.86
2023-01-12T10:07:30.918Z,89.60
2023-01-12T10:08:30.895Z,91.35
2023-01-12T10:09:30.909Z,90.22
2023-01-12T10:10:30.873Z,92.17
2023-01-12T10:11:30.862Z,89.40
2023-01-12T10:12:30.841Z,88.37
2023-01-12T10:13:30.827Z,90.01
2023-01-12T10:14:30.825Z,91.25
2023-01-12T10:15:30.803Z,89.50
2023-01-12T10:16:30.875Z,92.23
2023-01-12T10:17:38.701Z,93.10
2023-01-12T10:18:31.806Z,89.29
2023-01-12T10:19:30.770Z,90.28
2023-01-12T10:20:30.763Z,88.33
2023-01-12T10:21:30.752Z,91.31
2023-01-12T10:22:30.713Z,92.33
2023-01-12T10:23:30.699Z,89.50
2023-01-12T10:24:30.688Z,87.98
2023-01-12T10:25:30.692Z,89.83
2023-01-12T10:26:30.684Z,88.53
2023-01-12T10:27:30.635Z,88.70
2023-01-12T10:28:30.653Z,87.92
2023-01-12T10:29:30.612Z,89.25
2023-01-12T10:30:30.608Z,92.33
2023-01-12T10:31:30.660Z,89.93
2023-01-12T10:32:34.469Z,91.61
2023-01-12T10:33:31.595Z,89.87
2023-01-12T10:34:30.547Z,88.53
2023-01-12T10:35:30.532Z,89.46
2023-01-12T10:36:30.550Z,89.66
2023-01-12T10:37:30.560Z,89.36
2023-01-12T10:38:30.501Z,89.01
2023-01-12T10:39:30.489Z,89.11
2023-01-12T10:40:30.460Z,90.75
2023-01-12T10:41:30.456Z,88.53
2023-01-12T10:42:30.443Z,88.70
2023-01-12T10:43:30.431Z,89.62
2023-01-12T10:44:30.417Z,89.11
2023-01-12T10:45:30.430Z,89.07
2023-01-12T10:46:30.389Z,91.47
2023-01-12T10:47:30.373Z,87.88
2023-01-12T10:48:30.358Z,88.24
2023-01-12T10:49:30.352Z,88.45
2023-01-12T10:50:30.330Z,88.14
2023-01-12T10:51:30.347Z,89.48
2023-01-12T10:52:30.305Z,87.53
2023-01-12T10:53:30.336Z,87.02
2023-01-12T10:54:30.281Z,87.53
2023-01-12T10:55:30.290Z,86.71
2023-01-12T10:56:30.261Z,87.53
2023-01-12T10:57:30.242Z,85.74
2023-01-12T10:58:30.244Z,86.91
2023-01-12T10:59:30.216Z,85.85
2023-01-12T11:00:30.203Z,87.49
2023-01-12T11:01:30.313Z,86.30
2023-01-12T11:02:30.201Z,85.06
2023-01-12T11:03:30.168Z,87.79
2023-01-12T11:04:30.151Z,84.86
2023-01-12T11:05:30.132Z,89.27
2023-01-12T11:06:30.123Z,85.17
2023-01-12T11:07:30.104Z,86.15
2023-01-12T11:08:30.095Z,89.48
2023-01-12T11:09:30.108Z,85.33
2023-01-12T11:10:30.068Z,87.08
2023-01-12T11:11:30.070Z,88.00
2023-01-12T11:12:30.206Z,88.35
2023-01-12T11:13:30.045Z,84.82
2023-01-12T11:14:30.073Z,85.44
2023-01-12T11:15:30.000Z,87.38
2023-01-12T11:16:30.048Z,84.41
2023-01-12T11:17:29.975Z,85.50
2023-01-12T11:18:29.967Z,86.32
2023-01-12T11:19:29.963Z,83.04
2023-01-12T11:20:29.942Z,83.96
2023-01-12T11:21:29.928Z,86.22
2023-01-12T11:22:29.911Z,81.91
2023-01-12T11:23:29.898Z,83.61
2023-01-12T11:24:29.891Z,85.50
2023-01-12T11:25:29.896Z,85.71
2023-01-12T11:26:29.856Z,82.79
2023-01-12T11:27:29.841Z,82.14
2023-01-12T11:28:29.827Z,81.32
2023-01-12T11:29:29.813Z,80.91
2023-01-12T11:30:29.862Z,82.96
2023-01-12T11:31:29.786Z,81.98
2023-01-12T11:32:30.128Z,81.43
2023-01-12T11:33:29.761Z,80.85
2023-01-12T11:34:29.752Z,80.13
2023-01-12T11:35:29.736Z,81.22
2023-01-12T11:36:29.724Z,81.98
2023-01-12T11:37:29.711Z,83.78
2023-01-12T11:38:29.693Z,81.26
2023-01-12T11:39:29.687Z,83.58
2023-01-12T11:40:29.676Z,83.31
2023-01-12T11:41:29.735Z,86.28
2023-01-12T11:42:29.639Z,84.95
2023-01-12T11:43:29.631Z,84.95
2023-01-12T11:44:29.620Z,86.48
2023-01-12T11:45:29.603Z,86.69
2023-01-12T11:46:29.645Z,87.71
2023-01-12T11:47:29.573Z,86.07
2023-01-12T11:48:29.561Z,86.18
2023-01-12T11:49:29.553Z,86.34
2023-01-12T11:50:29.535Z,87.61
2023-01-12T11:51:29.519Z,86.90
2023-01-12T11:52:29.513Z,84.74
2023-01-12T11:53:29.509Z,87.16
2023-01-12T11:54:29.496Z,85.77
2023-01-12T11:55:29.469Z,84.64
2023-01-12T11:56:29.453Z,84.19
2023-01-12T11:57:29.459Z,85.87
2023-01-12T11:58:29.439Z,88.80
2023-01-12T11:59:29.418Z,87.61
2023-01-12T12:00:29.403Z,88.59
2023-01-12T12:01:29.466Z,88.64
2023-01-12T12:02:29.395Z,89.72
2023-01-12T12:03:29.384Z,88.33
2023-01-12T12:04:29.338Z,85.56
2023-01-12T12:05:29.327Z,87.82
2023-01-12T12:06:29.310Z,89.45
2023-01-12T12:07:29.308Z,88.18
2023-01-12T12:08:29.292Z,87.77
2023-01-12T12:09:29.283Z,89.11
2023-01-12T12:10:29.257Z,90.37
2023-01-12T12:11:29.248Z,88.64
2023-01-12T12:12:29.232Z,89.15
2023-01-12T12:13:29.253Z,87.41
2023-01-12T12:14:29.207Z,85.66
2023-01-12T12:15:29.279Z,86.38
2023-01-12T12:16:29.175Z,84.70
2023-01-12T12:17:29.164Z,88.08
2023-01-12T12:18:29.158Z,88.29
2023-01-12T12:19:29.142Z,84.50
2023-01-12T12:20:29.125Z,86.96
2023-01-12T12:21:29.113Z,83.74
2023-01-12T12:22:29.096Z,81.22
2023-01-12T12:23:29.091Z,81.84
2023-01-12T12:24:29.065Z,84.05
2023-01-12T12:25:29.057Z,83.03
2023-01-12T12:26:29.048Z,81.73
2023-01-12T12:27:29.028Z,80.81
2023-01-12T12:28:29.015Z,80.16
2023-01-12T12:29:29.047Z,80.36
2023-01-12T12:30:28.986Z,80.36
2023-01-12T12:31:28.995Z,82.21
2023-01-12T12:32:28.967Z,80.57
2023-01-12T12:33:28.949Z,83.54
2023-01-12T12:34:28.939Z,84.66
2023-01-12T12:35:28.927Z,82.62
2023-01-12T12:36:28.936Z,82.10
2023-01-12T12:37:28.904Z,84.25
2023-01-12T12:38:28.887Z,81.49
2023-01-12T12:39:28.874Z,80.67
2023-01-12T12:40:28.861Z,82.82
2023-01-12T12:41:28.836Z,84.05
2023-01-12T12:42:28.833Z,81.59
2023-01-12T12:43:28.813Z,81.90
2023-01-12T12:44:28.800Z,82.92
2023-01-12T12:45:28.833Z,81.79
2023-01-12T12:46:28.791Z,82.92
2023-01-12T12:47:28.768Z,84.97
2023-01-12T12:48:28.748Z,81.90
2023-01-12T12:49:28.749Z,82.31
2023-01-12T12:50:28.722Z,81.15
2023-01-12T12:51:28.708Z,81.24
2023-01-12T12:52:28.686Z,82.82